sensor_id;sensor_type;location;lat;lon;timestamp;P1;durP1;ratioP1;P2;durP2;ratioP2
75135;SDS011;63707;52.212;9.540;2023-04-01T00:02:07;8.63;;;1.58;;
75135;SDS011;63707;52.212;9.540;2023-04-01T00:04:32;8.85;;;1.50;;
75135;SDS011;63707;52.212;9.540;2023-04-01T00:06:58;4.78;;;1.30;;
75135;SDS011;63707;52.212;9.540;2023-04-01T00:09:24;10.07;;;1.90;;
75135;SDS011;63707;52.212;9.540;2023-04-01T00:11:52;7.85;;;1.40;;
75135;SDS011;63707;52.212;9.540;2023-04-01T00:14:18;2.72;;;1.05;;
75135;SDS011;63707;52.212;9.540;2023-04-01T00:16:45;4.95;;;1.77;;
75135;SDS011;63707;52.212;9.540;2023-04-01T00:19:10;5.20;;;1.30;;
75135;SDS011;63707;52.212;9.540;2023-04-01T00:21:36;3.28;;;1.00;;
75135;SDS011;63707;52.212;9.540;2023-04-01T00:24:01;6.57;;;1.08;;
75135;SDS011;63707;52.212;9.540;2023-04-01T00:26:27;5.03;;;1.00;;
75135;SDS011;63707;52.212;9.540;2023-04-01T00:28:52;6.88;;;1.30;;
75135;SDS011;63707;52.212;9.540;2023-04-01T00:31:18;4.65;;;1.15;;
75135;SDS011;63707;52.212;9.540;2023-04-01T00:33:46;5.03;;;1.10;;
75135;SDS011;63707;52.212;9.540;2023-04-01T00:36:12;7.05;;;1.55;;
75135;SDS011;63707;52.212;9.540;2023-04-01T00:38:39;9.30;;;1.30;;
75135;SDS011;63707;52.212;9.540;2023-04-01T00:41:08;5.57;;;1.60;;
75135;SDS011;63707;52.212;9.540;2023-04-01T00:43:39;8.02;;;1.40;;
75135;SDS011;63707;52.212;9.540;2023-04-01T00:46:05;5.00;;;1.00;;
75135;SDS011;63707;52.212;9.540;2023-04-01T00:48:32;3.80;;;1.00;;
75135;SDS011;63707;52.212;9.540;2023-04-01T00:51:02;3.45;;;1.52;;
75135;SDS011;63707;52.212;9.540;2023-04-01T00:53:31;6.20;;;1.63;;
75135;SDS011;63707;52.212;9.540;2023-04-01T00:56:00;7.90;;;1.35;;
75135;SDS011;63707;52.212;9.540;2023-04-01T00:58:29;4.78;;;1.45;;
75135;SDS011;63707;52.212;9.540;2023-04-01T01:00:58;5.88;;;1.30;;
75135;SDS011;63707;52.212;9.540;2023-04-01T01:03:25;4.10;;;1.17;;
75135;SDS011;63707;52.212;9.540;2023-04-01T01:05:55;7.75;;;1.15;;
75135;SDS011;63707;52.212;9.540;2023-04-01T01:08:33;5.00;;;1.35;;
75135;SDS011;63707;52.212;9.540;2023-04-01T01:11:09;6.07;;;1.30;;
75135;SDS011;63707;52.212;9.540;2023-04-01T01:13:39;6.93;;;2.55;;
75135;SDS011;63707;52.212;9.540;2023-04-01T01:16:09;5.63;;;1.58;;
75135;SDS011;63707;52.212;9.540;2023-04-01T01:18:42;1.92;;;0.95;;
75135;SDS011;63707;52.212;9.540;2023-04-01T01:21:21;6.70;;;1.50;;
75135;SDS011;63707;52.212;9.540;2023-04-01T01:26:59;4.47;;;1.10;;
75135;SDS011;63707;52.212;9.540;2023-04-01T01:32:18;5.15;;;1.00;;
75135;SDS011;63707;52.212;9.540;2023-04-01T01:35:12;6.20;;;0.90;;
75135;SDS011;63707;52.212;9.540;2023-04-01T01:37:45;4.10;;;1.05;;
75135;SDS011;63707;52.212;9.540;2023-04-01T01:40:12;5.82;;;1.30;;
75135;SDS011;63707;52.212;9.540;2023-04-01T01:42:41;2.55;;;0.85;;
75135;SDS011;63707;52.212;9.540;2023-04-01T01:45:10;3.97;;;1.00;;
75135;SDS011;63707;52.212;9.540;2023-04-01T01:47:39;6.85;;;1.00;;
75135;SDS011;63707;52.212;9.540;2023-04-01T01:50:07;4.50;;;0.93;;
75135;SDS011;63707;52.212;9.540;2023-04-01T01:52:35;3.92;;;0.80;;
75135;SDS011;63707;52.212;9.540;2023-04-01T01:55:01;4.68;;;1.23;;
75135;SDS011;63707;52.212;9.540;2023-04-01T01:57:28;5.25;;;1.02;;
75135;SDS011;63707;52.212;9.540;2023-04-01T01:59:58;6.68;;;0.90;;
75135;SDS011;63707;52.212;9.540;2023-04-01T02:02:28;3.92;;;0.98;;
75135;SDS011;63707;52.212;9.540;2023-04-01T02:04:56;5.55;;;0.75;;
75135;SDS011;63707;52.212;9.540;2023-04-01T02:07:23;1.75;;;0.75;;
75135;SDS011;63707;52.212;9.540;2023-04-01T02:09:53;4.15;;;1.30;;
75135;SDS011;63707;52.212;9.540;2023-04-01T02:12:19;6.93;;;1.13;;
75135;SDS011;63707;52.212;9.540;2023-04-01T02:14:50;4.90;;;1.38;;
75135;SDS011;63707;52.212;9.540;2023-04-01T02:17:19;5.05;;;1.15;;
75135;SDS011;63707;52.212;9.540;2023-04-01T02:19:47;5.47;;;1.30;;
75135;SDS011;63707;52.212;9.540;2023-04-01T02:22:18;3.67;;;0.85;;
75135;SDS011;63707;52.212;9.540;2023-04-01T02:24:46;4.47;;;1.25;;
75135;SDS011;63707;52.212;9.540;2023-04-01T02:27:15;4.28;;;1.17;;
75135;SDS011;63707;52.212;9.540;2023-04-01T02:29:41;7.60;;;1.27;;
75135;SDS011;63707;52.212;9.540;2023-04-01T02:32:07;6.28;;;1.63;;
75135;SDS011;63707;52.212;9.540;2023-04-01T02:34:34;3.45;;;1.00;;
75135;SDS011;63707;52.212;9.540;2023-04-01T02:37:00;4.28;;;1.08;;
75135;SDS011;63707;52.212;9.540;2023-04-01T02:39:26;4.43;;;1.10;;
75135;SDS011;63707;52.212;9.540;2023-04-01T02:41:52;2.80;;;0.90;;
75135;SDS011;63707;52.212;9.540;2023-04-01T02:44:19;3.42;;;1.13;;
75135;SDS011;63707;52.212;9.540;2023-04-01T02:46:45;6.25;;;1.20;;
75135;SDS011;63707;52.212;9.540;2023-04-01T02:49:10;7.45;;;0.95;;
75135;SDS011;63707;52.212;9.540;2023-04-01T02:51:36;4.25;;;1.23;;
75135;SDS011;63707;52.212;9.540;2023-04-01T02:54:02;5.20;;;1.60;;
75135;SDS011;63707;52.212;9.540;2023-04-01T02:56:27;6.30;;;1.30;;
75135;SDS011;63707;52.212;9.540;2023-04-01T02:58:53;7.93;;;1.70;;
75135;SDS011;63707;52.212;9.540;2023-04-01T03:01:20;5.43;;;1.25;;
75135;SDS011;63707;52.212;9.540;2023-04-01T03:03:46;6.38;;;1.25;;
75135;SDS011;63707;52.212;9.540;2023-04-01T03:06:12;2.97;;;0.93;;
75135;SDS011;63707;52.212;9.540;2023-04-01T03:08:40;5.13;;;1.10;;
75135;SDS011;63707;52.212;9.540;2023-04-01T03:11:05;3.20;;;0.90;;
75135;SDS011;63707;52.212;9.540;2023-04-01T03:13:31;3.58;;;0.80;;
75135;SDS011;63707;52.212;9.540;2023-04-01T03:15:57;4.68;;;0.95;;
75135;SDS011;63707;52.212;9.540;2023-04-01T03:18:23;4.82;;;1.10;;
75135;SDS011;63707;52.212;9.540;2023-04-01T03:20:49;4.45;;;1.00;;
75135;SDS011;63707;52.212;9.540;2023-04-01T03:23:15;5.18;;;0.80;;
75135;SDS011;63707;52.212;9.540;2023-04-01T03:25:42;3.83;;;0.80;;
75135;SDS011;63707;52.212;9.540;2023-04-01T03:28:08;4.80;;;1.08;;
75135;SDS011;63707;52.212;9.540;2023-04-01T03:30:33;7.00;;;1.95;;
75135;SDS011;63707;52.212;9.540;2023-04-01T03:32:59;4.82;;;1.10;;
75135;SDS011;63707;52.212;9.540;2023-04-01T03:35:27;3.15;;;0.88;;
75135;SDS011;63707;52.212;9.540;2023-04-01T03:37:53;3.85;;;0.85;;
75135;SDS011;63707;52.212;9.540;2023-04-01T03:40:19;4.15;;;0.88;;
75135;SDS011;63707;52.212;9.540;2023-04-01T03:42:45;4.50;;;1.08;;
75135;SDS011;63707;52.212;9.540;2023-04-01T03:45:10;4.95;;;1.30;;
75135;SDS011;63707;52.212;9.540;2023-04-01T03:47:39;7.10;;;1.02;;
75135;SDS011;63707;52.212;9.540;2023-04-01T03:50:05;2.88;;;0.80;;
75135;SDS011;63707;52.212;9.540;2023-04-01T03:52:33;3.75;;;1.00;;
75135;SDS011;63707;52.212;9.540;2023-04-01T03:55:00;2.33;;;1.00;;
75135;SDS011;63707;52.212;9.540;2023-04-01T03:57:26;5.88;;;1.30;;
75135;SDS011;63707;52.212;9.540;2023-04-01T03:59:52;4.53;;;0.90;;
75135;SDS011;63707;52.212;9.540;2023-04-01T04:02:17;3.72;;;0.90;;
75135;SDS011;63707;52.212;9.540;2023-04-01T04:04:43;3.13;;;1.00;;
75135;SDS011;63707;52.212;9.540;2023-04-01T04:07:08;4.38;;;1.45;;
75135;SDS011;63707;52.212;9.540;2023-04-01T04:09:35;3.05;;;1.15;;
75135;SDS011;63707;52.212;9.540;2023-04-01T04:12:01;4.63;;;1.08;;
75135;SDS011;63707;52.212;9.540;2023-04-01T04:14:27;2.60;;;1.20;;
75135;SDS011;63707;52.212;9.540;2023-04-01T04:16:52;3.60;;;1.23;;
75135;SDS011;63707;52.212;9.540;2023-04-01T04:19:18;3.53;;;0.98;;
75135;SDS011;63707;52.212;9.540;2023-04-01T04:21:43;5.88;;;1.58;;
75135;SDS011;63707;52.212;9.540;2023-04-01T04:24:09;3.17;;;1.10;;
75135;SDS011;63707;52.212;9.540;2023-04-01T04:26:36;4.45;;;1.00;;
75135;SDS011;63707;52.212;9.540;2023-04-01T04:29:02;3.95;;;1.63;;
75135;SDS011;63707;52.212;9.540;2023-04-01T04:31:27;2.63;;;1.15;;
75135;SDS011;63707;52.212;9.540;2023-04-01T04:33:53;4.07;;;1.25;;
75135;SDS011;63707;52.212;9.540;2023-04-01T04:36:19;2.67;;;1.10;;
75135;SDS011;63707;52.212;9.540;2023-04-01T04:38:46;5.07;;;1.15;;
75135;SDS011;63707;52.212;9.540;2023-04-01T04:41:12;4.00;;;1.00;;
75135;SDS011;63707;52.212;9.540;2023-04-01T04:43:41;3.80;;;1.02;;
75135;SDS011;63707;52.212;9.540;2023-04-01T04:46:07;6.82;;;1.00;;
75135;SDS011;63707;52.212;9.540;2023-04-01T04:48:33;2.80;;;1.27;;
75135;SDS011;63707;52.212;9.540;2023-04-01T04:50:58;1.98;;;0.90;;
75135;SDS011;63707;52.212;9.540;2023-04-01T04:53:24;3.92;;;1.50;;
75135;SDS011;63707;52.212;9.540;2023-04-01T04:55:51;2.72;;;1.35;;
75135;SDS011;63707;52.212;9.540;2023-04-01T04:58:16;4.20;;;1.50;;
75135;SDS011;63707;52.212;9.540;2023-04-01T05:00:43;4.75;;;1.30;;
75135;SDS011;63707;52.212;9.540;2023-04-01T05:03:10;3.97;;;1.00;;
75135;SDS011;63707;52.212;9.540;2023-04-01T05:05:36;3.13;;;1.35;;
75135;SDS011;63707;52.212;9.540;2023-04-01T05:08:02;3.05;;;1.00;;
75135;SDS011;63707;52.212;9.540;2023-04-01T05:10:28;3.15;;;0.98;;
75135;SDS011;63707;52.212;9.540;2023-04-01T05:12:54;3.63;;;1.02;;
75135;SDS011;63707;52.212;9.540;2023-04-01T05:15:20;4.07;;;1.00;;
75135;SDS011;63707;52.212;9.540;2023-04-01T05:17:47;2.40;;;1.00;;
75135;SDS011;63707;52.212;9.540;2023-04-01T05:20:12;4.03;;;0.98;;
75135;SDS011;63707;52.212;9.540;2023-04-01T05:22:39;3.85;;;1.17;;
75135;SDS011;63707;52.212;9.540;2023-04-01T05:25:05;3.13;;;1.13;;
75135;SDS011;63707;52.212;9.540;2023-04-01T05:27:31;3.17;;;0.90;;
75135;SDS011;63707;52.212;9.540;2023-04-01T05:29:56;3.13;;;0.60;;
75135;SDS011;63707;52.212;9.540;2023-04-01T05:32:22;4.47;;;1.10;;
75135;SDS011;63707;52.212;9.540;2023-04-01T05:34:51;5.45;;;0.80;;
75135;SDS011;63707;52.212;9.540;2023-04-01T05:37:17;2.63;;;0.65;;
75135;SDS011;63707;52.212;9.540;2023-04-01T05:39:42;1.88;;;0.60;;
75135;SDS011;63707;52.212;9.540;2023-04-01T05:42:08;1.73;;;0.80;;
75135;SDS011;63707;52.212;9.540;2023-04-01T05:44:34;2.75;;;0.68;;
75135;SDS011;63707;52.212;9.540;2023-04-01T05:46:59;2.05;;;0.80;;
75135;SDS011;63707;52.212;9.540;2023-04-01T05:49:25;2.60;;;0.70;;
75135;SDS011;63707;52.212;9.540;2023-04-01T05:51:52;3.00;;;0.80;;
75135;SDS011;63707;52.212;9.540;2023-04-01T05:54:17;2.38;;;0.60;;
75135;SDS011;63707;52.212;9.540;2023-04-01T05:56:43;1.02;;;0.60;;
75135;SDS011;63707;52.212;9.540;2023-04-01T05:59:09;1.77;;;0.50;;
75135;SDS011;63707;52.212;9.540;2023-04-01T06:01:35;1.95;;;0.70;;
75135;SDS011;63707;52.212;9.540;2023-04-01T06:04:00;1.90;;;0.55;;
75135;SDS011;63707;52.212;9.540;2023-04-01T06:06:26;4.88;;;0.70;;
75135;SDS011;63707;52.212;9.540;2023-04-01T06:08:54;2.83;;;0.90;;
75135;SDS011;63707;52.212;9.540;2023-04-01T06:11:26;2.05;;;0.45;;
75135;SDS011;63707;52.212;9.540;2023-04-01T06:14:07;3.50;;;0.70;;
75135;SDS011;63707;52.212;9.540;2023-04-01T06:16:44;2.97;;;0.80;;
75135;SDS011;63707;52.212;9.540;2023-04-01T06:19:22;2.78;;;0.80;;
75135;SDS011;63707;52.212;9.540;2023-04-01T06:22:07;3.05;;;0.80;;
75135;SDS011;63707;52.212;9.540;2023-04-01T06:24:53;3.08;;;0.82;;
75135;SDS011;63707;52.212;9.540;2023-04-01T06:27:39;1.47;;;0.50;;
75135;SDS011;63707;52.212;9.540;2023-04-01T06:30:23;2.92;;;0.70;;
75135;SDS011;63707;52.212;9.540;2023-04-01T06:33:01;7.60;;;2.42;;
75135;SDS011;63707;52.212;9.540;2023-04-01T06:35:56;4.38;;;1.30;;
75135;SDS011;63707;52.212;9.540;2023-04-01T06:38:52;3.13;;;1.30;;
75135;SDS011;63707;52.212;9.540;2023-04-01T06:41:44;1.25;;;0.63;;
75135;SDS011;63707;52.212;9.540;2023-04-01T06:44:23;1.30;;;0.60;;
75135;SDS011;63707;52.212;9.540;2023-04-01T06:47:03;3.80;;;0.93;;
75135;SDS011;63707;52.212;9.540;2023-04-01T06:49:41;1.45;;;0.52;;
75135;SDS011;63707;52.212;9.540;2023-04-01T06:52:16;1.40;;;0.70;;
75135;SDS011;63707;52.212;9.540;2023-04-01T06:54:48;2.57;;;0.70;;
75135;SDS011;63707;52.212;9.540;2023-04-01T06:57:20;3.22;;;0.70;;
75135;SDS011;63707;52.212;9.540;2023-04-01T06:59:53;1.70;;;0.47;;
75135;SDS011;63707;52.212;9.540;2023-04-01T07:02:23;3.20;;;1.33;;
75135;SDS011;63707;52.212;9.540;2023-04-01T07:04:53;1.98;;;0.70;;
75135;SDS011;63707;52.212;9.540;2023-04-01T07:07:25;4.15;;;1.00;;
75135;SDS011;63707;52.212;9.540;2023-04-01T07:09:57;6.00;;;1.70;;
75135;SDS011;63707;52.212;9.540;2023-04-01T07:12:31;1.63;;;0.60;;
75135;SDS011;63707;52.212;9.540;2023-04-01T07:15:12;1.58;;;0.70;;
75135;SDS011;63707;52.212;9.540;2023-04-01T07:17:43;2.60;;;0.70;;
75135;SDS011;63707;52.212;9.540;2023-04-01T07:20:13;1.77;;;0.50;;
75135;SDS011;63707;52.212;9.540;2023-04-01T07:22:45;3.25;;;1.08;;
75135;SDS011;63707;52.212;9.540;2023-04-01T07:25:14;1.67;;;0.50;;
75135;SDS011;63707;52.212;9.540;2023-04-01T07:27:43;0.82;;;0.50;;
75135;SDS011;63707;52.212;9.540;2023-04-01T07:30:13;3.67;;;0.70;;
75135;SDS011;63707;52.212;9.540;2023-04-01T07:32:40;3.90;;;0.70;;
75135;SDS011;63707;52.212;9.540;2023-04-01T07:35:11;2.63;;;0.50;;
75135;SDS011;63707;52.212;9.540;2023-04-01T07:37:45;2.13;;;0.65;;
75135;SDS011;63707;52.212;9.540;2023-04-01T07:40:21;0.75;;;0.47;;
75135;SDS011;63707;52.212;9.540;2023-04-01T07:43:00;1.15;;;0.40;;
75135;SDS011;63707;52.212;9.540;2023-04-01T07:45:38;1.15;;;0.38;;
75135;SDS011;63707;52.212;9.540;2023-04-01T07:48:12;1.35;;;0.77;;
75135;SDS011;63707;52.212;9.540;2023-04-01T07:50:46;3.65;;;2.03;;
75135;SDS011;63707;52.212;9.540;2023-04-01T07:53:21;2.92;;;0.75;;
75135;SDS011;63707;52.212;9.540;2023-04-01T07:55:53;3.25;;;1.27;;
75135;SDS011;63707;52.212;9.540;2023-04-01T07:58:29;5.32;;;2.08;;
75135;SDS011;63707;52.212;9.540;2023-04-01T08:01:05;4.80;;;1.30;;
75135;SDS011;63707;52.212;9.540;2023-04-01T08:03:43;3.65;;;1.40;;
75135;SDS011;63707;52.212;9.540;2023-04-01T08:06:20;6.28;;;2.47;;
75135;SDS011;63707;52.212;9.540;2023-04-01T08:08:56;2.10;;;1.20;;
75135;SDS011;63707;52.212;9.540;2023-04-01T08:11:31;3.65;;;0.63;;
75135;SDS011;63707;52.212;9.540;2023-04-01T08:14:10;0.88;;;0.73;;
75135;SDS011;63707;52.212;9.540;2023-04-01T08:16:45;3.75;;;1.00;;
75135;SDS011;63707;52.212;9.540;2023-04-01T08:19:20;2.95;;;0.80;;
75135;SDS011;63707;52.212;9.540;2023-04-01T08:21:56;2.42;;;0.90;;
75135;SDS011;63707;52.212;9.540;2023-04-01T08:24:31;1.55;;;1.10;;
75135;SDS011;63707;52.212;9.540;2023-04-01T08:27:01;0.85;;;0.50;;
75135;SDS011;63707;52.212;9.540;2023-04-01T08:29:34;1.60;;;0.60;;
75135;SDS011;63707;52.212;9.540;2023-04-01T08:32:06;1.42;;;0.70;;
75135;SDS011;63707;52.212;9.540;2023-04-01T08:34:37;0.90;;;0.70;;
75135;SDS011;63707;52.212;9.540;2023-04-01T08:37:07;2.60;;;0.77;;
75135;SDS011;63707;52.212;9.540;2023-04-01T08:39:37;1.45;;;0.85;;
75135;SDS011;63707;52.212;9.540;2023-04-01T08:42:11;1.35;;;0.88;;
75135;SDS011;63707;52.212;9.540;2023-04-01T08:44:59;2.63;;;1.38;;
75135;SDS011;63707;52.212;9.540;2023-04-01T08:53:59;2.38;;;1.20;;
75135;SDS011;63707;52.212;9.540;2023-04-01T08:56:47;3.00;;;1.50;;
75135;SDS011;63707;52.212;9.540;2023-04-01T08:59:27;2.78;;;0.90;;
75135;SDS011;63707;52.212;9.540;2023-04-01T09:02:13;3.78;;;1.90;;
75135;SDS011;63707;52.212;9.540;2023-04-01T09:05:02;1.95;;;1.30;;
75135;SDS011;63707;52.212;9.540;2023-04-01T09:07:45;1.92;;;0.88;;
75135;SDS011;63707;52.212;9.540;2023-04-01T09:10:29;3.60;;;1.55;;
75135;SDS011;63707;52.212;9.540;2023-04-01T09:13:20;2.50;;;0.80;;
75135;SDS011;63707;52.212;9.540;2023-04-01T09:16:22;2.50;;;1.10;;
75135;SDS011;63707;52.212;9.540;2023-04-01T09:21:53;2.28;;;0.65;;
75135;SDS011;63707;52.212;9.540;2023-04-01T09:24:34;1.77;;;0.90;;
75135;SDS011;63707;52.212;9.540;2023-04-01T09:27:14;3.33;;;0.70;;
75135;SDS011;63707;52.212;9.540;2023-04-01T09:32:58;2.15;;;0.60;;
75135;SDS011;63707;52.212;9.540;2023-04-01T09:35:47;1.73;;;0.80;;
75135;SDS011;63707;52.212;9.540;2023-04-01T09:38:19;0.88;;;0.60;;
75135;SDS011;63707;52.212;9.540;2023-04-01T09:40:48;2.13;;;0.80;;
75135;SDS011;63707;52.212;9.540;2023-04-01T09:43:25;1.80;;;0.60;;
75135;SDS011;63707;52.212;9.540;2023-04-01T09:45:55;0.70;;;0.50;;
75135;SDS011;63707;52.212;9.540;2023-04-01T09:51:37;2.25;;;0.90;;
75135;SDS011;63707;52.212;9.540;2023-04-01T09:54:13;3.70;;;0.85;;
75135;SDS011;63707;52.212;9.540;2023-04-01T09:57:03;2.13;;;0.70;;
75135;SDS011;63707;52.212;9.540;2023-04-01T10:00:05;0.82;;;0.60;;
75135;SDS011;63707;52.212;9.540;2023-04-01T10:03:01;2.17;;;0.70;;
75135;SDS011;63707;52.212;9.540;2023-04-01T10:06:16;2.00;;;0.90;;
75135;SDS011;63707;52.212;9.540;2023-04-01T10:12:28;2.08;;;0.77;;
75135;SDS011;63707;52.212;9.540;2023-04-01T10:21:16;1.55;;;0.80;;
75135;SDS011;63707;52.212;9.540;2023-04-01T10:27:34;1.27;;;0.77;;
75135;SDS011;63707;52.212;9.540;2023-04-01T10:30:23;0.65;;;0.50;;
75135;SDS011;63707;52.212;9.540;2023-04-01T10:33:19;1.63;;;0.60;;
75135;SDS011;63707;52.212;9.540;2023-04-01T10:36:13;1.55;;;0.50;;
75135;SDS011;63707;52.212;9.540;2023-04-01T10:41:59;0.50;;;0.40;;
75135;SDS011;63707;52.212;9.540;2023-04-01T10:51:12;0.50;;;0.50;;
75135;SDS011;63707;52.212;9.540;2023-04-01T10:53:46;0.73;;;0.50;;
75135;SDS011;63707;52.212;9.540;2023-04-01T11:02:38;0.90;;;0.50;;
75135;SDS011;63707;52.212;9.540;2023-04-01T11:18:10;1.85;;;0.60;;
75135;SDS011;63707;52.212;9.540;2023-04-01T11:26:43;2.30;;;0.50;;
75135;SDS011;63707;52.212;9.540;2023-04-01T11:29:40;1.15;;;0.60;;
75135;SDS011;63707;52.212;9.540;2023-04-01T11:32:20;0.40;;;0.40;;
75135;SDS011;63707;52.212;9.540;2023-04-01T11:35:05;0.90;;;0.40;;
75135;SDS011;63707;52.212;9.540;2023-04-01T11:37:49;0.70;;;0.50;;
75135;SDS011;63707;52.212;9.540;2023-04-01T11:40:25;0.50;;;0.50;;
75135;SDS011;63707;52.212;9.540;2023-04-01T11:42:57;1.77;;;0.57;;
75135;SDS011;63707;52.212;9.540;2023-04-01T11:45:32;2.75;;;0.80;;
75135;SDS011;63707;52.212;9.540;2023-04-01T11:48:08;0.47;;;0.40;;
75135;SDS011;63707;52.212;9.540;2023-04-01T11:50:57;1.52;;;0.60;;
75135;SDS011;63707;52.212;9.540;2023-04-01T11:53:41;1.20;;;0.65;;
75135;SDS011;63707;52.212;9.540;2023-04-01T11:56:17;1.13;;;0.50;;
75135;SDS011;63707;52.212;9.540;2023-04-01T11:58:55;1.63;;;0.90;;
75135;SDS011;63707;52.212;9.540;2023-04-01T12:01:44;0.93;;;0.40;;
75135;SDS011;63707;52.212;9.540;2023-04-01T12:04:36;0.88;;;0.45;;
75135;SDS011;63707;52.212;9.540;2023-04-01T12:07:24;2.67;;;0.70;;
75135;SDS011;63707;52.212;9.540;2023-04-01T12:10:05;1.85;;;0.60;;
75135;SDS011;63707;52.212;9.540;2023-04-01T12:12:44;1.30;;;0.60;;
75135;SDS011;63707;52.212;9.540;2023-04-01T12:15:19;0.90;;;0.40;;
75135;SDS011;63707;52.212;9.540;2023-04-01T12:17:53;1.40;;;0.50;;
75135;SDS011;63707;52.212;9.540;2023-04-01T12:20:33;4.50;;;1.88;;
75135;SDS011;63707;52.212;9.540;2023-04-01T12:23:08;4.28;;;1.75;;
75135;SDS011;63707;52.212;9.540;2023-04-01T12:25:51;5.25;;;1.58;;
75135;SDS011;63707;52.212;9.540;2023-04-01T12:28:29;4.05;;;1.30;;
75135;SDS011;63707;52.212;9.540;2023-04-01T12:31:09;3.60;;;2.17;;
75135;SDS011;63707;52.212;9.540;2023-04-01T12:33:47;1.95;;;1.02;;
75135;SDS011;63707;52.212;9.540;2023-04-01T12:36:23;0.98;;;0.63;;
75135;SDS011;63707;52.212;9.540;2023-04-01T12:39:03;1.58;;;0.90;;
75135;SDS011;63707;52.212;9.540;2023-04-01T12:41:46;1.67;;;0.95;;
75135;SDS011;63707;52.212;9.540;2023-04-01T12:44:20;2.20;;;1.50;;
75135;SDS011;63707;52.212;9.540;2023-04-01T12:47:03;1.95;;;1.20;;
75135;SDS011;63707;52.212;9.540;2023-04-01T12:49:54;1.63;;;0.68;;
75135;SDS011;63707;52.212;9.540;2023-04-01T12:52:35;1.73;;;1.00;;
75135;SDS011;63707;52.212;9.540;2023-04-01T12:55:33;2.03;;;1.33;;
75135;SDS011;63707;52.212;9.540;2023-04-01T12:58:11;3.53;;;2.60;;
75135;SDS011;63707;52.212;9.540;2023-04-01T13:00:58;2.20;;;0.93;;
75135;SDS011;63707;52.212;9.540;2023-04-01T13:03:44;3.22;;;1.58;;
75135;SDS011;63707;52.212;9.540;2023-04-01T13:06:39;0.47;;;0.40;;
75135;SDS011;63707;52.212;9.540;2023-04-01T13:09:21;1.88;;;1.00;;
75135;SDS011;63707;52.212;9.540;2023-04-01T13:11:59;2.40;;;1.00;;
75135;SDS011;63707;52.212;9.540;2023-04-01T13:14:54;1.48;;;0.90;;
75135;SDS011;63707;52.212;9.540;2023-04-01T13:17:31;1.65;;;1.10;;
75135;SDS011;63707;52.212;9.540;2023-04-01T13:20:02;1.50;;;1.00;;
75135;SDS011;63707;52.212;9.540;2023-04-01T13:22:45;1.98;;;0.80;;
75135;SDS011;63707;52.212;9.540;2023-04-01T13:25:24;1.10;;;0.80;;
75135;SDS011;63707;52.212;9.540;2023-04-01T13:27:56;3.33;;;1.05;;
75135;SDS011;63707;52.212;9.540;2023-04-01T13:30:30;1.30;;;0.65;;
75135;SDS011;63707;52.212;9.540;2023-04-01T13:33:04;1.60;;;1.00;;
75135;SDS011;63707;52.212;9.540;2023-04-01T13:35:42;1.08;;;0.90;;
75135;SDS011;63707;52.212;9.540;2023-04-01T13:38:16;1.15;;;0.75;;
75135;SDS011;63707;52.212;9.540;2023-04-01T13:40:57;1.67;;;1.10;;
75135;SDS011;63707;52.212;9.540;2023-04-01T13:43:31;1.58;;;1.30;;
75135;SDS011;63707;52.212;9.540;2023-04-01T13:46:16;1.67;;;1.15;;
75135;SDS011;63707;52.212;9.540;2023-04-01T13:49:06;3.33;;;1.10;;
75135;SDS011;63707;52.212;9.540;2023-04-01T13:52:05;2.38;;;1.40;;
75135;SDS011;63707;52.212;9.540;2023-04-01T13:55:10;3.78;;;2.00;;
75135;SDS011;63707;52.212;9.540;2023-04-01T13:58:09;3.42;;;1.60;;
75135;SDS011;63707;52.212;9.540;2023-04-01T14:00:51;4.32;;;1.80;;
75135;SDS011;63707;52.212;9.540;2023-04-01T14:03:37;3.95;;;1.83;;
75135;SDS011;63707;52.212;9.540;2023-04-01T14:06:19;4.43;;;1.67;;
75135;SDS011;63707;52.212;9.540;2023-04-01T14:08:58;2.88;;;1.45;;
75135;SDS011;63707;52.212;9.540;2023-04-01T14:11:39;4.15;;;1.70;;
75135;SDS011;63707;52.212;9.540;2023-04-01T14:14:18;3.28;;;1.75;;
75135;SDS011;63707;52.212;9.540;2023-04-01T14:20:00;4.18;;;2.25;;
75135;SDS011;63707;52.212;9.540;2023-04-01T14:22:51;4.50;;;2.30;;
75135;SDS011;63707;52.212;9.540;2023-04-01T14:28:29;3.05;;;2.20;;
75135;SDS011;63707;52.212;9.540;2023-04-01T14:33:41;4.25;;;2.67;;
75135;SDS011;63707;52.212;9.540;2023-04-01T14:42:18;2.40;;;1.30;;
75135;SDS011;63707;52.212;9.540;2023-04-01T14:47:56;5.30;;;1.73;;
75135;SDS011;63707;52.212;9.540;2023-04-01T14:50:26;3.95;;;1.90;;
75135;SDS011;63707;52.212;9.540;2023-04-01T14:52:56;6.43;;;2.97;;
75135;SDS011;63707;52.212;9.540;2023-04-01T14:55:28;4.90;;;3.03;;
75135;SDS011;63707;52.212;9.540;2023-04-01T14:57:58;5.18;;;3.30;;
75135;SDS011;63707;52.212;9.540;2023-04-01T15:00:40;5.97;;;2.88;;
75135;SDS011;63707;52.212;9.540;2023-04-01T15:03:14;6.35;;;3.15;;
75135;SDS011;63707;52.212;9.540;2023-04-01T15:05:45;3.75;;;2.53;;
75135;SDS011;63707;52.212;9.540;2023-04-01T15:08:16;7.38;;;3.17;;
75135;SDS011;63707;52.212;9.540;2023-04-01T15:13:52;5.60;;;3.63;;
75135;SDS011;63707;52.212;9.540;2023-04-01T15:16:29;4.45;;;2.92;;
75135;SDS011;63707;52.212;9.540;2023-04-01T15:19:05;5.15;;;2.90;;
75135;SDS011;63707;52.212;9.540;2023-04-01T15:21:44;3.25;;;2.60;;
75135;SDS011;63707;52.212;9.540;2023-04-01T15:24:25;3.08;;;2.00;;
75135;SDS011;63707;52.212;9.540;2023-04-01T15:29:56;2.75;;;1.67;;
75135;SDS011;63707;52.212;9.540;2023-04-01T15:32:44;2.17;;;1.50;;
75135;SDS011;63707;52.212;9.540;2023-04-01T15:35:19;1.63;;;1.40;;
75135;SDS011;63707;52.212;9.540;2023-04-01T15:37:55;1.70;;;1.50;;
75135;SDS011;63707;52.212;9.540;2023-04-01T15:40:28;3.03;;;1.58;;
75135;SDS011;63707;52.212;9.540;2023-04-01T15:43:03;2.67;;;1.30;;
75135;SDS011;63707;52.212;9.540;2023-04-01T15:45:48;1.50;;;1.38;;
75135;SDS011;63707;52.212;9.540;2023-04-01T15:48:27;1.83;;;1.40;;
75135;SDS011;63707;52.212;9.540;2023-04-01T15:51:07;3.60;;;1.77;;
75135;SDS011;63707;52.212;9.540;2023-04-01T15:53:45;3.25;;;2.45;;
75135;SDS011;63707;52.212;9.540;2023-04-01T15:56:23;3.17;;;2.00;;
75135;SDS011;63707;52.212;9.540;2023-04-01T15:58:56;2.90;;;1.30;;
75135;SDS011;63707;52.212;9.540;2023-04-01T16:01:33;2.63;;;1.20;;
75135;SDS011;63707;52.212;9.540;2023-04-01T16:04:15;1.58;;;1.13;;
75135;SDS011;63707;52.212;9.540;2023-04-01T16:06:55;1.52;;;1.20;;
75135;SDS011;63707;52.212;9.540;2023-04-01T16:09:43;3.97;;;1.30;;
75135;SDS011;63707;52.212;9.540;2023-04-01T16:12:24;1.88;;;1.05;;
75135;SDS011;63707;52.212;9.540;2023-04-01T16:15:09;1.30;;;1.10;;
75135;SDS011;63707;52.212;9.540;2023-04-01T16:17:53;1.83;;;1.27;;
75135;SDS011;63707;52.212;9.540;2023-04-01T16:20:43;1.58;;;1.10;;
75135;SDS011;63707;52.212;9.540;2023-04-01T16:23:17;0.93;;;0.80;;
75135;SDS011;63707;52.212;9.540;2023-04-01T16:25:49;1.10;;;0.82;;
75135;SDS011;63707;52.212;9.540;2023-04-01T16:28:23;1.42;;;1.20;;
75135;SDS011;63707;52.212;9.540;2023-04-01T16:30:55;1.35;;;1.13;;
75135;SDS011;63707;52.212;9.540;2023-04-01T16:33:27;0.95;;;0.82;;
75135;SDS011;63707;52.212;9.540;2023-04-01T16:36:07;1.00;;;0.80;;
75135;SDS011;63707;52.212;9.540;2023-04-01T16:38:36;4.57;;;1.13;;
75135;SDS011;63707;52.212;9.540;2023-04-01T16:41:10;4.20;;;1.25;;
75135;SDS011;63707;52.212;9.540;2023-04-01T16:43:38;4.10;;;1.10;;
75135;SDS011;63707;52.212;9.540;2023-04-01T16:46:18;1.27;;;0.90;;
75135;SDS011;63707;52.212;9.540;2023-04-01T16:48:58;2.88;;;1.00;;
75135;SDS011;63707;52.212;9.540;2023-04-01T16:54:01;1.70;;;1.00;;
75135;SDS011;63707;52.212;9.540;2023-04-01T16:56:36;1.30;;;1.10;;
75135;SDS011;63707;52.212;9.540;2023-04-01T16:59:06;1.25;;;1.10;;
75135;SDS011;63707;52.212;9.540;2023-04-01T17:04:11;1.35;;;1.10;;
75135;SDS011;63707;52.212;9.540;2023-04-01T17:06:47;1.30;;;0.95;;
75135;SDS011;63707;52.212;9.540;2023-04-01T17:09:21;2.22;;;1.50;;